sensor_id;sensor_type;location;lat;lon;timestamp;P1;durP1;ratioP1;P2;durP2;ratioP2
21777;SDS011;11050;52.222;20.916;2022-08-21T00:02:24;9.93;;;5.75;;
21777;SDS011;11050;52.222;20.916;2022-08-21T00:04:52;6.00;;;5.40;;
21777;SDS011;11050;52.222;20.916;2022-08-21T00:07:19;7.65;;;5.45;;
21777;SDS011;11050;52.222;20.916;2022-08-21T00:09:46;6.15;;;5.25;;
21777;SDS011;11050;52.222;20.916;2022-08-21T00:12:12;7.63;;;6.00;;
21777;SDS011;11050;52.222;20.916;2022-08-21T00:14:38;8.18;;;5.28;;
21777;SDS011;11050;52.222;20.916;2022-08-21T00:17:05;8.25;;;5.50;;
21777;SDS011;11050;52.222;20.916;2022-08-21T00:19:32;7.57;;;5.55;;
21777;SDS011;11050;52.222;20.916;2022-08-21T00:21:59;9.25;;;5.32;;
21777;SDS011;11050;52.222;20.916;2022-08-21T00:24:25;8.75;;;5.95;;
21777;SDS011;11050;52.222;20.916;2022-08-21T00:26:51;9.98;;;6.05;;
21777;SDS011;11050;52.222;20.916;2022-08-21T00:29:18;8.77;;;5.88;;
21777;SDS011;11050;52.222;20.916;2022-08-21T00:31:44;6.47;;;5.72;;
21777;SDS011;11050;52.222;20.916;2022-08-21T00:34:11;9.65;;;5.45;;
21777;SDS011;11050;52.222;20.916;2022-08-21T00:36:38;6.97;;;5.75;;
21777;SDS011;11050;52.222;20.916;2022-08-21T00:39:05;7.07;;;6.00;;
21777;SDS011;11050;52.222;20.916;2022-08-21T00:41:33;8.15;;;5.88;;
21777;SDS011;11050;52.222;20.916;2022-08-21T00:44:02;8.20;;;6.38;;
21777;SDS011;11050;52.222;20.916;2022-08-21T00:46:29;7.47;;;6.07;;
21777;SDS011;11050;52.222;20.916;2022-08-21T00:48:55;7.75;;;5.63;;
21777;SDS011;11050;52.222;20.916;2022-08-21T00:51:24;7.03;;;6.15;;
21777;SDS011;11050;52.222;20.916;2022-08-21T00:53:59;8.23;;;6.50;;
21777;SDS011;11050;52.222;20.916;2022-08-21T00:56:27;8.98;;;6.75;;
21777;SDS011;11050;52.222;20.916;2022-08-21T00:58:54;7.47;;;6.57;;
21777;SDS011;11050;52.222;20.916;2022-08-21T01:01:22;6.63;;;5.82;;
21777;SDS011;11050;52.222;20.916;2022-08-21T01:03:48;7.82;;;6.32;;
21777;SDS011;11050;52.222;20.916;2022-08-21T01:06:14;10.13;;;6.03;;
21777;SDS011;11050;52.222;20.916;2022-08-21T01:08:41;10.98;;;6.32;;
21777;SDS011;11050;52.222;20.916;2022-08-21T01:11:07;8.75;;;6.18;;
21777;SDS011;11050;52.222;20.916;2022-08-21T01:13:35;8.10;;;6.13;;
21777;SDS011;11050;52.222;20.916;2022-08-21T01:16:05;9.35;;;6.10;;
21777;SDS011;11050;52.222;20.916;2022-08-21T01:18:34;8.98;;;6.30;;
21777;SDS011;11050;52.222;20.916;2022-08-21T01:23:36;7.07;;;6.38;;
21777;SDS011;11050;52.222;20.916;2022-08-21T01:26:05;8.10;;;6.75;;
21777;SDS011;11050;52.222;20.916;2022-08-21T01:28:33;9.40;;;6.55;;
21777;SDS011;11050;52.222;20.916;2022-08-21T01:31:07;10.20;;;6.07;;
21777;SDS011;11050;52.222;20.916;2022-08-21T01:33:36;8.65;;;6.03;;
21777;SDS011;11050;52.222;20.916;2022-08-21T01:36:03;7.80;;;6.55;;
21777;SDS011;11050;52.222;20.916;2022-08-21T01:38:29;7.85;;;6.32;;
21777;SDS011;11050;52.222;20.916;2022-08-21T01:40:55;11.23;;;6.20;;
21777;SDS011;11050;52.222;20.916;2022-08-21T01:43:21;8.23;;;6.40;;
21777;SDS011;11050;52.222;20.916;2022-08-21T01:45:47;8.82;;;6.22;;
21777;SDS011;11050;52.222;20.916;2022-08-21T01:48:13;8.48;;;6.22;;
21777;SDS011;11050;52.222;20.916;2022-08-21T01:50:39;7.45;;;6.22;;
21777;SDS011;11050;52.222;20.916;2022-08-21T01:53:04;7.78;;;6.60;;
21777;SDS011;11050;52.222;20.916;2022-08-21T01:55:30;7.32;;;6.63;;
21777;SDS011;11050;52.222;20.916;2022-08-21T01:57:57;7.75;;;6.43;;
21777;SDS011;11050;52.222;20.916;2022-08-21T02:00:25;7.68;;;6.32;;
21777;SDS011;11050;52.222;20.916;2022-08-21T02:02:51;7.68;;;6.32;;
21777;SDS011;11050;52.222;20.916;2022-08-21T02:05:18;7.75;;;5.72;;
21777;SDS011;11050;52.222;20.916;2022-08-21T02:07:46;9.05;;;6.10;;
21777;SDS011;11050;52.222;20.916;2022-08-21T02:10:17;6.82;;;5.75;;
21777;SDS011;11050;52.222;20.916;2022-08-21T02:12:48;9.20;;;6.50;;
21777;SDS011;11050;52.222;20.916;2022-08-21T02:15:15;8.38;;;6.35;;
21777;SDS011;11050;52.222;20.916;2022-08-21T02:17:43;7.03;;;5.90;;
21777;SDS011;11050;52.222;20.916;2022-08-21T02:20:20;7.93;;;5.80;;
21777;SDS011;11050;52.222;20.916;2022-08-21T02:22:53;6.65;;;6.00;;
21777;SDS011;11050;52.222;20.916;2022-08-21T02:25:20;9.52;;;6.18;;
21777;SDS011;11050;52.222;20.916;2022-08-21T02:27:47;6.15;;;5.50;;
21777;SDS011;11050;52.222;20.916;2022-08-21T02:30:19;6.47;;;5.57;;
21777;SDS011;11050;52.222;20.916;2022-08-21T02:32:50;7.25;;;5.85;;
21777;SDS011;11050;52.222;20.916;2022-08-21T02:35:16;6.07;;;5.45;;
21777;SDS011;11050;52.222;20.916;2022-08-21T02:38:05;6.60;;;6.00;;
21777;SDS011;11050;52.222;20.916;2022-08-21T02:40:34;6.43;;;5.82;;
21777;SDS011;11050;52.222;20.916;2022-08-21T02:43:04;7.75;;;5.72;;
21777;SDS011;11050;52.222;20.916;2022-08-21T02:45:31;6.90;;;6.07;;
21777;SDS011;11050;52.222;20.916;2022-08-21T02:48:00;7.05;;;5.88;;
21777;SDS011;11050;52.222;20.916;2022-08-21T02:50:35;6.75;;;6.15;;
21777;SDS011;11050;52.222;20.916;2022-08-21T02:53:06;8.57;;;6.05;;
21777;SDS011;11050;52.222;20.916;2022-08-21T02:55:35;7.80;;;5.60;;
21777;SDS011;11050;52.222;20.916;2022-08-21T02:58:03;6.40;;;5.70;;
21777;SDS011;11050;52.222;20.916;2022-08-21T03:00:33;8.90;;;6.15;;
21777;SDS011;11050;52.222;20.916;2022-08-21T03:03:02;8.20;;;5.82;;
21777;SDS011;11050;52.222;20.916;2022-08-21T03:05:29;8.02;;;6.25;;
21777;SDS011;11050;52.222;20.916;2022-08-21T03:07:58;8.23;;;6.15;;
21777;SDS011;11050;52.222;20.916;2022-08-21T03:10:27;7.13;;;6.45;;
21777;SDS011;11050;52.222;20.916;2022-08-21T03:12:53;7.13;;;5.85;;
21777;SDS011;11050;52.222;20.916;2022-08-21T03:15:20;9.13;;;6.10;;
21777;SDS011;11050;52.222;20.916;2022-08-21T03:17:49;8.63;;;5.63;;
21777;SDS011;11050;52.222;20.916;2022-08-21T03:20:18;8.38;;;6.05;;
21777;SDS011;11050;52.222;20.916;2022-08-21T03:22:47;9.43;;;6.57;;
21777;SDS011;11050;52.222;20.916;2022-08-21T03:25:13;9.15;;;6.47;;
21777;SDS011;11050;52.222;20.916;2022-08-21T03:27:39;8.85;;;6.47;;
21777;SDS011;11050;52.222;20.916;2022-08-21T03:30:05;8.02;;;6.40;;
21777;SDS011;11050;52.222;20.916;2022-08-21T03:32:33;10.60;;;6.50;;
21777;SDS011;11050;52.222;20.916;2022-08-21T03:35:00;7.57;;;5.65;;
21777;SDS011;11050;52.222;20.916;2022-08-21T03:37:26;7.53;;;6.28;;
21777;SDS011;11050;52.222;20.916;2022-08-21T03:39:52;6.97;;;6.10;;
21777;SDS011;11050;52.222;20.916;2022-08-21T03:42:19;10.30;;;6.70;;
21777;SDS011;11050;52.222;20.916;2022-08-21T03:44:44;6.30;;;5.72;;
21777;SDS011;11050;52.222;20.916;2022-08-21T03:47:10;10.27;;;6.85;;
21777;SDS011;11050;52.222;20.916;2022-08-21T03:49:36;10.60;;;6.85;;
21777;SDS011;11050;52.222;20.916;2022-08-21T03:52:03;7.95;;;6.60;;
21777;SDS011;11050;52.222;20.916;2022-08-21T03:54:29;7.50;;;6.43;;
21777;SDS011;11050;52.222;20.916;2022-08-21T03:56:56;8.07;;;5.80;;
21777;SDS011;11050;52.222;20.916;2022-08-21T03:59:22;7.13;;;6.32;;
21777;SDS011;11050;52.222;20.916;2022-08-21T04:01:59;8.77;;;6.70;;
21777;SDS011;11050;52.222;20.916;2022-08-21T04:04:28;8.95;;;6.75;;
21777;SDS011;11050;52.222;20.916;2022-08-21T04:06:55;7.47;;;6.50;;
21777;SDS011;11050;52.222;20.916;2022-08-21T04:09:22;9.35;;;5.85;;
21777;SDS011;11050;52.222;20.916;2022-08-21T04:11:49;6.53;;;5.93;;
21777;SDS011;11050;52.222;20.916;2022-08-21T04:14:15;7.97;;;6.13;;
21777;SDS011;11050;52.222;20.916;2022-08-21T04:16:42;7.15;;;6.45;;
21777;SDS011;11050;52.222;20.916;2022-08-21T04:19:11;8.82;;;5.82;;
21777;SDS011;11050;52.222;20.916;2022-08-21T04:21:38;9.32;;;6.47;;
21777;SDS011;11050;52.222;20.916;2022-08-21T04:24:05;12.95;;;6.25;;
21777;SDS011;11050;52.222;20.916;2022-08-21T04:26:34;7.88;;;6.30;;
21777;SDS011;11050;52.222;20.916;2022-08-21T04:29:02;11.55;;;6.55;;
21777;SDS011;11050;52.222;20.916;2022-08-21T04:31:31;8.05;;;6.55;;
21777;SDS011;11050;52.222;20.916;2022-08-21T04:33:58;8.35;;;5.90;;
21777;SDS011;11050;52.222;20.916;2022-08-21T04:36:24;6.97;;;6.28;;
21777;SDS011;11050;52.222;20.916;2022-08-21T04:38:51;10.27;;;6.75;;
21777;SDS011;11050;52.222;20.916;2022-08-21T04:41:17;7.50;;;6.55;;
21777;SDS011;11050;52.222;20.916;2022-08-21T04:43:43;12.18;;;6.40;;
21777;SDS011;11050;52.222;20.916;2022-08-21T04:46:09;9.20;;;6.03;;
21777;SDS011;11050;52.222;20.916;2022-08-21T04:48:35;7.15;;;6.45;;
21777;SDS011;11050;52.222;20.916;2022-08-21T04:53:34;7.00;;;6.20;;
21777;SDS011;11050;52.222;20.916;2022-08-21T04:56:08;7.78;;;6.43;;
21777;SDS011;11050;52.222;20.916;2022-08-21T04:58:40;11.23;;;6.00;;
21777;SDS011;11050;52.222;20.916;2022-08-21T05:01:09;7.13;;;6.05;;
21777;SDS011;11050;52.222;20.916;2022-08-21T05:03:40;6.97;;;6.28;;
21777;SDS011;11050;52.222;20.916;2022-08-21T05:06:09;8.52;;;6.03;;
21777;SDS011;11050;52.222;20.916;2022-08-21T05:08:39;6.70;;;6.05;;
21777;SDS011;11050;52.222;20.916;2022-08-21T05:11:08;6.43;;;5.78;;
21777;SDS011;11050;52.222;20.916;2022-08-21T05:13:35;10.10;;;6.10;;
21777;SDS011;11050;52.222;20.916;2022-08-21T05:16:01;6.82;;;6.22;;
21777;SDS011;11050;52.222;20.916;2022-08-21T05:18:27;7.13;;;5.53;;
21777;SDS011;11050;52.222;20.916;2022-08-21T05:20:53;5.80;;;5.30;;
21777;SDS011;11050;52.222;20.916;2022-08-21T05:23:19;6.95;;;6.20;;
21777;SDS011;11050;52.222;20.916;2022-08-21T05:25:45;9.13;;;6.25;;
21777;SDS011;11050;52.222;20.916;2022-08-21T05:28:11;7.03;;;6.07;;
21777;SDS011;11050;52.222;20.916;2022-08-21T05:30:37;6.72;;;6.03;;
21777;SDS011;11050;52.222;20.916;2022-08-21T05:33:05;8.77;;;7.38;;
21777;SDS011;11050;52.222;20.916;2022-08-21T05:35:32;5.95;;;5.35;;
21777;SDS011;11050;52.222;20.916;2022-08-21T05:37:59;6.97;;;6.20;;
21777;SDS011;11050;52.222;20.916;2022-08-21T05:40:25;8.23;;;7.00;;
21777;SDS011;11050;52.222;20.916;2022-08-21T05:42:52;7.55;;;6.55;;
21777;SDS011;11050;52.222;20.916;2022-08-21T05:45:20;7.13;;;6.50;;
21777;SDS011;11050;52.222;20.916;2022-08-21T05:47:48;9.85;;;6.55;;
21777;SDS011;11050;52.222;20.916;2022-08-21T05:50:14;6.72;;;5.85;;
21777;SDS011;11050;52.222;20.916;2022-08-21T05:52:40;11.48;;;6.10;;
21777;SDS011;11050;52.222;20.916;2022-08-21T05:55:06;10.55;;;6.82;;
21777;SDS011;11050;52.222;20.916;2022-08-21T05:57:32;10.20;;;6.55;;
21777;SDS011;11050;52.222;20.916;2022-08-21T05:59:58;8.75;;;6.28;;
21777;SDS011;11050;52.222;20.916;2022-08-21T06:02:23;9.13;;;6.95;;
21777;SDS011;11050;52.222;20.916;2022-08-21T06:04:49;7.30;;;6.60;;
21777;SDS011;11050;52.222;20.916;2022-08-21T06:07:15;9.65;;;6.00;;
21777;SDS011;11050;52.222;20.916;2022-08-21T06:09:41;9.07;;;6.40;;
21777;SDS011;11050;52.222;20.916;2022-08-21T06:12:07;7.10;;;6.47;;
21777;SDS011;11050;52.222;20.916;2022-08-21T06:14:37;8.85;;;6.20;;
21777;SDS011;11050;52.222;20.916;2022-08-21T06:17:05;7.30;;;6.60;;
21777;SDS011;11050;52.222;20.916;2022-08-21T06:19:35;7.93;;;6.35;;
21777;SDS011;11050;52.222;20.916;2022-08-21T06:22:03;8.10;;;6.47;;
21777;SDS011;11050;52.222;20.916;2022-08-21T06:24:30;7.90;;;6.40;;
21777;SDS011;11050;52.222;20.916;2022-08-21T06:26:57;7.00;;;6.28;;
21777;SDS011;11050;52.222;20.916;2022-08-21T06:29:28;7.25;;;6.47;;
21777;SDS011;11050;52.222;20.916;2022-08-21T06:31:54;6.63;;;6.03;;
21777;SDS011;11050;52.222;20.916;2022-08-21T06:34:19;7.90;;;6.30;;
21777;SDS011;11050;52.222;20.916;2022-08-21T06:36:45;6.78;;;6.03;;
21777;SDS011;11050;52.222;20.916;2022-08-21T06:39:11;10.10;;;6.15;;
21777;SDS011;11050;52.222;20.916;2022-08-21T06:41:38;6.70;;;6.10;;
21777;SDS011;11050;52.222;20.916;2022-08-21T06:44:04;11.38;;;7.22;;
21777;SDS011;11050;52.222;20.916;2022-08-21T06:46:30;10.70;;;6.28;;
21777;SDS011;11050;52.222;20.916;2022-08-21T06:48:56;12.05;;;7.15;;
21777;SDS011;11050;52.222;20.916;2022-08-21T06:51:24;9.75;;;7.05;;
21777;SDS011;11050;52.222;20.916;2022-08-21T06:53:50;8.68;;;6.90;;
21777;SDS011;11050;52.222;20.916;2022-08-21T06:56:17;7.80;;;6.97;;
21777;SDS011;11050;52.222;20.916;2022-08-21T06:58:44;7.13;;;6.43;;
21777;SDS011;11050;52.222;20.916;2022-08-21T07:01:10;8.10;;;6.13;;
21777;SDS011;11050;52.222;20.916;2022-08-21T07:03:37;10.32;;;6.90;;
21777;SDS011;11050;52.222;20.916;2022-08-21T07:06:07;7.65;;;6.60;;
21777;SDS011;11050;52.222;20.916;2022-08-21T07:08:34;7.55;;;6.85;;
21777;SDS011;11050;52.222;20.916;2022-08-21T07:11:02;7.07;;;6.20;;
21777;SDS011;11050;52.222;20.916;2022-08-21T07:13:36;6.97;;;6.28;;
21777;SDS011;11050;52.222;20.916;2022-08-21T07:16:01;10.20;;;6.50;;
21777;SDS011;11050;52.222;20.916;2022-08-21T07:18:27;7.38;;;6.57;;
21777;SDS011;11050;52.222;20.916;2022-08-21T07:20:54;6.78;;;5.88;;
21777;SDS011;11050;52.222;20.916;2022-08-21T07:23:34;7.50;;;6.22;;
21777;SDS011;11050;52.222;20.916;2022-08-21T07:26:05;8.20;;;6.38;;
21777;SDS011;11050;52.222;20.916;2022-08-21T07:28:32;8.35;;;6.38;;
21777;SDS011;11050;52.222;20.916;2022-08-21T07:30:59;7.97;;;5.95;;
21777;SDS011;11050;52.222;20.916;2022-08-21T07:33:27;8.57;;;5.88;;
21777;SDS011;11050;52.222;20.916;2022-08-21T07:35:56;6.90;;;6.18;;
21777;SDS011;11050;52.222;20.916;2022-08-21T07:38:22;8.52;;;5.65;;
21777;SDS011;11050;52.222;20.916;2022-08-21T07:40:49;6.65;;;6.05;;
21777;SDS011;11050;52.222;20.916;2022-08-21T07:43:19;8.30;;;5.85;;
21777;SDS011;11050;52.222;20.916;2022-08-21T07:45:46;7.13;;;6.00;;
21777;SDS011;11050;52.222;20.916;2022-08-21T07:48:14;7.78;;;5.80;;
21777;SDS011;11050;52.222;20.916;2022-08-21T07:50:41;6.80;;;6.05;;
21777;SDS011;11050;52.222;20.916;2022-08-21T07:53:08;8.80;;;6.13;;
21777;SDS011;11050;52.222;20.916;2022-08-21T07:55:34;7.20;;;5.90;;
21777;SDS011;11050;52.222;20.916;2022-08-21T07:58:00;11.00;;;5.70;;
21777;SDS011;11050;52.222;20.916;2022-08-21T08:00:26;8.45;;;5.95;;
21777;SDS011;11050;52.222;20.916;2022-08-21T08:02:54;7.53;;;5.60;;
21777;SDS011;11050;52.222;20.916;2022-08-21T08:05:23;7.50;;;6.40;;
21777;SDS011;11050;52.222;20.916;2022-08-21T08:07:53;8.05;;;5.93;;
21777;SDS011;11050;52.222;20.916;2022-08-21T08:10:20;6.63;;;5.97;;
21777;SDS011;11050;52.222;20.916;2022-08-21T08:12:47;7.95;;;6.25;;
21777;SDS011;11050;52.222;20.916;2022-08-21T08:15:17;7.30;;;5.38;;
21777;SDS011;11050;52.222;20.916;2022-08-21T08:17:46;10.10;;;5.60;;
21777;SDS011;11050;52.222;20.916;2022-08-21T08:20:13;7.22;;;5.63;;
21777;SDS011;11050;52.222;20.916;2022-08-21T08:22:42;8.23;;;5.55;;
21777;SDS011;11050;52.222;20.916;2022-08-21T08:25:10;6.50;;;5.25;;
21777;SDS011;11050;52.222;20.916;2022-08-21T08:27:38;7.05;;;5.70;;
21777;SDS011;11050;52.222;20.916;2022-08-21T08:30:05;6.70;;;5.75;;
21777;SDS011;11050;52.222;20.916;2022-08-21T08:32:34;7.88;;;5.63;;
21777;SDS011;11050;52.222;20.916;2022-08-21T08:35:00;7.72;;;5.13;;
21777;SDS011;11050;52.222;20.916;2022-08-21T08:37:26;7.32;;;5.38;;
21777;SDS011;11050;52.222;20.916;2022-08-21T08:39:51;9.40;;;5.60;;
21777;SDS011;11050;52.222;20.916;2022-08-21T08:42:25;6.28;;;5.68;;
21777;SDS011;11050;52.222;20.916;2022-08-21T08:45:31;8.30;;;5.32;;
21777;SDS011;11050;52.222;20.916;2022-08-21T08:47:59;6.30;;;4.85;;
21777;SDS011;11050;52.222;20.916;2022-08-21T08:53:56;9.55;;;5.93;;
21777;SDS011;11050;52.222;20.916;2022-08-21T08:56:29;7.57;;;5.45;;
21777;SDS011;11050;52.222;20.916;2022-08-21T08:59:01;8.25;;;5.57;;
21777;SDS011;11050;52.222;20.916;2022-08-21T09:01:40;8.45;;;5.75;;
21777;SDS011;11050;52.222;20.916;2022-08-21T09:04:06;6.90;;;5.03;;
21777;SDS011;11050;52.222;20.916;2022-08-21T09:06:41;7.03;;;5.00;;
21777;SDS011;11050;52.222;20.916;2022-08-21T09:15:00;7.20;;;5.03;;
21777;SDS011;11050;52.222;20.916;2022-08-21T09:17:32;7.32;;;5.35;;
21777;SDS011;11050;52.222;20.916;2022-08-21T09:23:22;6.22;;;4.97;;
21777;SDS011;11050;52.222;20.916;2022-08-21T09:26:19;5.90;;;5.40;;
21777;SDS011;11050;52.222;20.916;2022-08-21T09:28:52;5.43;;;4.80;;
21777;SDS011;11050;52.222;20.916;2022-08-21T09:33:58;6.07;;;4.28;;
21777;SDS011;11050;52.222;20.916;2022-08-21T09:39:22;5.10;;;4.65;;
21777;SDS011;11050;52.222;20.916;2022-08-21T09:42:05;7.65;;;4.97;;
21777;SDS011;11050;52.222;20.916;2022-08-21T09:44:35;5.45;;;4.95;;
21777;SDS011;11050;52.222;20.916;2022-08-21T09:47:08;7.30;;;5.10;;
21777;SDS011;11050;52.222;20.916;2022-08-21T09:49:39;7.47;;;5.40;;
21777;SDS011;11050;52.222;20.916;2022-08-21T09:52:17;21.88;;;13.93;;
21777;SDS011;11050;52.222;20.916;2022-08-21T09:54:49;11.63;;;6.63;;
21777;SDS011;11050;52.222;20.916;2022-08-21T09:57:24;5.75;;;4.93;;
21777;SDS011;11050;52.222;20.916;2022-08-21T10:02:47;6.68;;;5.35;;
21777;SDS011;11050;52.222;20.916;2022-08-21T10:05:19;5.53;;;4.97;;
21777;SDS011;11050;52.222;20.916;2022-08-21T10:07:49;5.72;;;4.90;;
21777;SDS011;11050;52.222;20.916;2022-08-21T10:10:23;6.85;;;5.03;;
21777;SDS011;11050;52.222;20.916;2022-08-21T10:16:10;5.82;;;5.22;;
21777;SDS011;11050;52.222;20.916;2022-08-21T10:27:22;7.38;;;5.30;;
21777;SDS011;11050;52.222;20.916;2022-08-21T10:30:11;5.72;;;5.07;;
21777;SDS011;11050;52.222;20.916;2022-08-21T10:35:43;5.70;;;4.95;;
21777;SDS011;11050;52.222;20.916;2022-08-21T10:38:46;7.45;;;4.63;;
21777;SDS011;11050;52.222;20.916;2022-08-21T10:47:34;6.43;;;4.45;;
21777;SDS011;11050;52.222;20.916;2022-08-21T10:50:17;6.00;;;4.65;;
21777;SDS011;11050;52.222;20.916;2022-08-21T10:55:48;6.65;;;4.57;;
21777;SDS011;11050;52.222;20.916;2022-08-21T10:58:29;7.53;;;4.43;;
21777;SDS011;11050;52.222;20.916;2022-08-21T11:01:05;7.90;;;4.60;;
21777;SDS011;11050;52.222;20.916;2022-08-21T11:03:41;5.97;;;4.13;;
21777;SDS011;11050;52.222;20.916;2022-08-21T11:06:23;6.40;;;4.25;;
21777;SDS011;11050;52.222;20.916;2022-08-21T11:08:57;5.85;;;4.22;;
21777;SDS011;11050;52.222;20.916;2022-08-21T11:11:44;4.80;;;3.90;;
21777;SDS011;11050;52.222;20.916;2022-08-21T11:14:56;6.15;;;3.75;;
21777;SDS011;11050;52.222;20.916;2022-08-21T11:17:54;4.57;;;4.13;;
21777;SDS011;11050;52.222;20.916;2022-08-21T11:20:29;5.53;;;3.70;;
21777;SDS011;11050;52.222;20.916;2022-08-21T11:23:18;4.28;;;3.85;;
21777;SDS011;11050;52.222;20.916;2022-08-21T11:25:56;4.38;;;3.80;;
21777;SDS011;11050;52.222;20.916;2022-08-21T11:28:31;4.63;;;3.70;;
21777;SDS011;11050;52.222;20.916;2022-08-21T11:36:54;4.22;;;3.83;;
21777;SDS011;11050;52.222;20.916;2022-08-21T11:42:21;11.15;;;4.38;;
21777;SDS011;11050;52.222;20.916;2022-08-21T11:50:52;4.35;;;3.63;;
21777;SDS011;11050;52.222;20.916;2022-08-21T11:56:18;4.05;;;3.20;;
21777;SDS011;11050;52.222;20.916;2022-08-21T11:59:02;4.10;;;3.30;;
21777;SDS011;11050;52.222;20.916;2022-08-21T12:01:39;4.93;;;3.28;;
21777;SDS011;11050;52.222;20.916;2022-08-21T12:04:16;5.07;;;3.42;;
21777;SDS011;11050;52.222;20.916;2022-08-21T12:06:52;4.57;;;3.22;;
21777;SDS011;11050;52.222;20.916;2022-08-21T12:11:59;4.35;;;3.58;;
21777;SDS011;11050;52.222;20.916;2022-08-21T12:14:34;3.38;;;3.08;;
21777;SDS011;11050;52.222;20.916;2022-08-21T12:17:20;3.22;;;2.92;;
21777;SDS011;11050;52.222;20.916;2022-08-21T12:20:02;4.10;;;3.20;;
21777;SDS011;11050;52.222;20.916;2022-08-21T12:25:40;5.47;;;3.25;;
21777;SDS011;11050;52.222;20.916;2022-08-21T12:28:26;4.90;;;3.40;;
21777;SDS011;11050;52.222;20.916;2022-08-21T12:30:55;3.72;;;3.30;;
21777;SDS011;11050;52.222;20.916;2022-08-21T12:33:31;5.82;;;3.28;;
21777;SDS011;11050;52.222;20.916;2022-08-21T12:36:10;4.03;;;2.95;;
21777;SDS011;11050;52.222;20.916;2022-08-21T12:38:50;3.33;;;3.03;;
21777;SDS011;11050;52.222;20.916;2022-08-21T12:41:20;4.85;;;3.10;;
21777;SDS011;11050;52.222;20.916;2022-08-21T12:43:57;4.43;;;3.50;;
21777;SDS011;11050;52.222;20.916;2022-08-21T12:46:39;3.50;;;3.20;;
21777;SDS011;11050;52.222;20.916;2022-08-21T12:49:14;3.97;;;3.58;;
21777;SDS011;11050;52.222;20.916;2022-08-21T12:51:59;4.43;;;3.45;;
21777;SDS011;11050;52.222;20.916;2022-08-21T12:54:42;4.53;;;4.00;;
21777;SDS011;11050;52.222;20.916;2022-08-21T12:57:17;3.70;;;3.40;;
21777;SDS011;11050;52.222;20.916;2022-08-21T12:59:57;4.70;;;3.45;;
21777;SDS011;11050;52.222;20.916;2022-08-21T13:02:37;3.72;;;3.42;;
21777;SDS011;11050;52.222;20.916;2022-08-21T13:05:15;3.67;;;3.00;;
21777;SDS011;11050;52.222;20.916;2022-08-21T13:07:55;4.00;;;3.28;;
21777;SDS011;11050;52.222;20.916;2022-08-21T13:10:29;4.05;;;3.20;;
21777;SDS011;11050;52.222;20.916;2022-08-21T13:13:02;4.85;;;3.40;;
21777;SDS011;11050;52.222;20.916;2022-08-21T13:15:33;5.35;;;3.30;;
21777;SDS011;11050;52.222;20.916;2022-08-21T13:18:04;4.32;;;3.40;;
21777;SDS011;11050;52.222;20.916;2022-08-21T13:20:35;3.83;;;3.17;;
21777;SDS011;11050;52.222;20.916;2022-08-21T13:25:52;5.43;;;3.30;;
21777;SDS011;11050;52.222;20.916;2022-08-21T13:28:20;3.70;;;3.30;;
21777;SDS011;11050;52.222;20.916;2022-08-21T13:30:48;3.47;;;3.17;;
21777;SDS011;11050;52.222;20.916;2022-08-21T13:33:24;4.53;;;3.45;;
21777;SDS011;11050;52.222;20.916;2022-08-21T13:36:03;3.40;;;2.95;;
21777;SDS011;11050;52.222;20.916;2022-08-21T13:38:36;5.28;;;3.55;;
21777;SDS011;11050;52.222;20.916;2022-08-21T13:43:49;4.05;;;3.65;;
21777;SDS011;11050;52.222;20.916;2022-08-21T13:46:24;3.50;;;3.20;;
21777;SDS011;11050;52.222;20.916;2022-08-21T13:48:55;3.63;;;3.33;;
21777;SDS011;11050;52.222;20.916;2022-08-21T13:51:23;4.63;;;3.60;;
21777;SDS011;11050;52.222;20.916;2022-08-21T13:53:49;4.47;;;3.67;;
21777;SDS011;11050;52.222;20.916;2022-08-21T13:58:56;4.10;;;3.70;;
21777;SDS011;11050;52.222;20.916;2022-08-21T14:01:29;7.40;;;3.78;;
21777;SDS011;11050;52.222;20.916;2022-08-21T14:06:36;5.07;;;3.70;;
21777;SDS011;11050;52.222;20.916;2022-08-21T14:09:13;4.38;;;3.70;;
21777;SDS011;11050;52.222;20.916;2022-08-21T14:12:12;3.85;;;3.55;;
21777;SDS011;11050;52.222;20.916;2022-08-21T14:14:51;5.68;;;3.83;;
21777;SDS011;11050;52.222;20.916;2022-08-21T14:17:54;5.53;;;3.53;;
21777;SDS011;11050;52.222;20.916;2022-08-21T14:20:35;3.53;;;3.22;;
21777;SDS011;11050;52.222;20.916;2022-08-21T14:23:01;4.60;;;3.33;;
21777;SDS011;11050;52.222;20.916;2022-08-21T14:25:30;6.30;;;3.22;;
21777;SDS011;11050;52.222;20.916;2022-08-21T14:28:11;4.72;;;3.28;;
21777;SDS011;11050;52.222;20.916;2022-08-21T14:30:51;3.17;;;2.83;;
21777;SDS011;11050;52.222;20.916;2022-08-21T14:33:26;3.33;;;3.03;;
21777;SDS011;11050;52.222;20.916;2022-08-21T14:35:56;6.45;;;3.50;;
21777;SDS011;11050;52.222;20.916;2022-08-21T14:38:24;5.20;;;3.42;;
21777;SDS011;11050;52.222;20.916;2022-08-21T14:40:54;4.53;;;3.25;;
21777;SDS011;11050;52.222;20.916;2022-08-21T14:43:24;6.30;;;3.30;;
21777;SDS011;11050;52.222;20.916;2022-08-21T14:45:52;4.13;;;3.72;;
21777;SDS011;11050;52.222;20.916;2022-08-21T14:48:20;3.38;;;3.17;;
21777;SDS011;11050;52.222;20.916;2022-08-21T14:50:45;3.97;;;3.40;;
21777;SDS011;11050;52.222;20.916;2022-08-21T14:53:12;3.05;;;2.75;;
21777;SDS011;11050;52.222;20.916;2022-08-21T14:55:38;3.40;;;3.10;;
21777;SDS011;11050;52.222;20.916;2022-08-21T14:58:24;3.22;;;3.03;;
21777;SDS011;11050;52.222;20.916;2022-08-21T15:00:51;4.53;;;3.28;;
21777;SDS011;11050;52.222;20.916;2022-08-21T15:03:19;3.40;;;3.20;;
21777;SDS011;11050;52.222;20.916;2022-08-21T15:05:48;3.95;;;3.55;;
21777;SDS011;11050;52.222;20.916;2022-08-21T15:08:14;4.30;;;3.03;;
21777;SDS011;11050;52.222;20.916;2022-08-21T15:10:41;5.05;;;3.35;;
21777;SDS011;11050;52.222;20.916;2022-08-21T15:13:07;4.05;;;2.92;;
21777;SDS011;11050;52.222;20.916;2022-08-21T15:15:45;4.32;;;3.10;;
21777;SDS011;11050;52.222;20.916;2022-08-21T15:18:13;3.70;;;3.00;;
21777;SDS011;11050;52.222;20.916;2022-08-21T15:20:39;3.50;;;3.00;;
21777;SDS011;11050;52.222;20.916;2022-08-21T15:23:05;4.65;;;3.17;;
21777;SDS011;11050;52.222;20.916;2022-08-21T15:25:33;4.60;;;3.05;;
21777;SDS011;11050;52.222;20.916;2022-08-21T15:28:00;5.22;;;3.30;;
21777;SDS011;11050;52.222;20.916;2022-08-21T15:30:28;3.60;;;2.83;;
21777;SDS011;11050;52.222;20.916;2022-08-21T15:32:56;3.05;;;2.75;;
21777;SDS011;11050;52.222;20.916;2022-08-21T15:35:22;2.97;;;2.78;;
21777;SDS011;11050;52.222;20.916;2022-08-21T15:37:48;3.28;;;2.78;;
21777;SDS011;11050;52.222;20.916;2022-08-21T15:40:15;4.15;;;3.17;;
21777;SDS011;11050;52.222;20.916;2022-08-21T15:42:41;4.90;;;2.78;;
21777;SDS011;11050;52.222;20.916;2022-08-21T15:45:09;3.05;;;2.78;;
21777;SDS011;11050;52.222;20.916;2022-08-21T15:47:38;4.80;;;3.50;;
21777;SDS011;11050;52.222;20.916;2022-08-21T15:50:10;3.13;;;2.83;;
21777;SDS011;11050;52.222;20.916;2022-08-21T15:52:37;3.95;;;2.60;;
21777;SDS011;11050;52.222;20.916;2022-08-21T15:55:04;3.83;;;3.13;;
21777;SDS011;11050;52.222;20.916;2022-08-21T15:57:31;3.25;;;2.95;;
21777;SDS011;11050;52.222;20.916;2022-08-21T16:00:00;4.40;;;3.00;;
21777;SDS011;11050;52.222;20.916;2022-08-21T16:02:57;3.30;;;2.90;;
21777;SDS011;11050;52.222;20.916;2022-08-21T16:05:24;2.92;;;2.70;;
21777;SDS011;11050;52.222;20.916;2022-08-21T16:07:51;3.35;;;2.55;;
21777;SDS011;11050;52.222;20.916;2022-08-21T16:10:20;4.57;;;2.95;;
21777;SDS011;11050;52.222;20.916;2022-08-21T16:12:55;3.88;;;2.80;;
21777;SDS011;11050;52.222;20.916;2022-08-21T16:15:28;3.42;;;3.10;;
21777;SDS011;11050;52.222;20.916;2022-08-21T16:17:55;3.83;;;3.30;;